Time;durP1;ratioP1;P1;durP2;ratioP2;P2;SDS_P1;SDS_P2;PMS_P1;PMS_P2;Temp;Humidity;BMP_temperature;BMP_pressure;BME280_temperature;BME280_humidity;BME280_pressure;Samples;Min_cycle;Max_cycle;Signal;HPM_P1;HPM_P2
2021/07/14 09:15:57;;;;;;;9.90;3.80;;;;;;;;;;1044485;27;115457;-63
2021/07/14 09:16:33;;;;;;;7.70;3.72;;;;;;;;;;1023707;28;114095;-69
2021/07/14 09:17:22;;;;;;;7.70;4.05;;;;;;;;;;1021202;28;113953;-65
2021/07/14 09:17:55;;;;;;;6.30;3.38;;;;;;;;;;1020840;28;113930;-66
2021/07/14 09:18:28;;;;;;;6.18;3.88;;;;;;;;;;1032199;28;114424;-69
2021/07/14 09:19:12;;;;;;;8.25;3.47;;;;;;;;;;1032692;28;114236;-71
2021/07/14 09:19:44;;;;;;;14.40;4.47;;;;;;;;;;1032902;28;113954;-63
2021/07/14 09:20:19;;;;;;;8.27;3.75;;;;;;;;;;1028702;28;113928;-64
2021/07/14 09:20:57;;;;;;;7.65;4.00;;;;;;;;;;1033266;28;114190;-68
2021/07/14 09:21:29;;;;;;;8.90;4.57;;;;;;;;;;1030237;28;113869;-65
2021/07/14 09:22:00;;;;;;;9.90;3.75;;;;;;;;;;1022722;28;113862;-68
2021/07/14 09:22:33;;;;;;;8.35;3.80;;;;;;;;;;1020315;28;114455;-65
2021/07/14 09:23:13;;;;;;;5.88;3.80;;;;;;;;;;1021612;28;114372;-64
2021/07/14 09:23:44;;;;;;;8.68;4.00;;;;;;;;;;1017749;28;114673;-69
2021/07/14 09:24:32;;;;;;;11.15;4.25;;;;;;;;;;1024087;28;114230;-67
2021/07/14 09:25:13;;;;;;;6.80;4.10;;;;;;;;;;1022916;28;113885;-69
2021/07/14 09:25:48;;;;;;;7.55;4.25;;;;;;;;;;1018728;28;116297;-65
2021/07/14 09:26:29;;;;;;;8.73;3.95;;;;;;;;;;1014107;28;114335;-68
2021/07/14 09:27:03;;;;;;;9.10;4.40;;;;;;;;;;1017592;28;116845;-66
2021/07/14 09:27:37;;;;;;;10.57;4.22;;;;;;;;;;1018148;28;114024;-72
2021/07/14 09:28:08;;;;;;;6.38;4.10;;;;;;;;;;1016853;28;114168;-66
2021/07/14 09:28:41;;;;;;;7.20;3.85;;;;;;;;;;1028168;28;113765;-65
2021/07/14 09:29:12;;;;;;;7.65;3.70;;;;;;;;;;1025492;28;114197;-66
2021/07/14 09:30:10;;;;;;;7.70;3.75;;;;;;;;;;1020369;28;114107;-68
2021/07/14 09:30:41;;;;;;;9.13;3.85;;;;;;;;;;1017510;28;117277;-64
2021/07/14 09:31:13;;;;;;;5.78;3.72;;;;;;;;;;1021712;28;113742;-64
2021/07/14 09:31:48;;;;;;;8.68;4.03;;;;;;;;;;1024678;28;113744;-65
2021/07/14 09:32:19;;;;;;;6.53;4.35;;;;;;;;;;1024543;28;114000;-65
2021/07/14 09:33:07;;;;;;;7.47;4.47;;;;;;;;;;1031184;28;114376;-64
2021/07/14 09:33:44;;;;;;;9.50;4.22;;;;;;;;;;1028374;28;113774;-65
2021/07/14 09:34:33;;;;;;;8.35;4.35;;;;;;;;;;1033100;28;114407;-66
2021/07/14 09:35:05;;;;;;;9.70;3.60;;;;;;;;;;1033829;28;113851;-67
2021/07/14 09:35:39;;;;;;;9.70;4.03;;;;;;;;;;1032769;28;116742;-68
2021/07/14 09:36:11;;;;;;;8.75;4.53;;;;;;;;;;1029155;28;113914;-64
2021/07/14 09:36:47;;;;;;;7.28;3.50;;;;;;;;;;1025299;28;116649;-69
2021/07/14 09:37:18;;;;;;;9.73;4.75;;;;;;;;;;1025579;28;113764;-65
2021/07/14 09:37:49;;;;;;;5.70;4.07;;;;;;;;;;1022832;28;115724;-68
2021/07/14 09:38:35;;;;;;;9.15;3.58;;;;;;;;;;1020613;28;113783;-66
2021/07/14 09:39:06;;;;;;;9.05;4.28;;;;;;;;;;1016732;28;115051;-63
2021/07/14 09:39:39;;;;;;;9.57;3.83;;;;;;;;;;1020727;28;114504;-64
2021/07/14 09:40:18;;;;;;;6.22;4.05;;;;;;;;;;1025219;28;113976;-67
2021/07/14 09:40:59;;;;;;;8.07;4.05;;;;;;;;;;1025546;28;113975;-67
2021/07/14 09:41:35;;;;;;;5.68;3.80;;;;;;;;;;1027611;28;115149;-64
2021/07/14 09:42:13;;;;;;;5.40;3.33;;;;;;;;;;1029529;28;113908;-68
2021/07/14 09:42:57;;;;;;;3.83;3.40;;;;;;;;;;1026595;28;116249;-66
2021/07/14 09:43:32;;;;;;;7.85;3.72;;;;;;;;;;1027627;28;113778;-65
2021/07/14 09:44:17;;;;;;;5.85;3.80;;;;;;;;;;1026849;28;114159;-65
2021/07/14 09:44:50;;;;;;;5.95;3.60;;;;;;;;;;1028427;28;114431;-66
2021/07/14 09:45:35;;;;;;;9.45;4.10;;;;;;;;;;1030079;28;114336;-65
2021/07/14 09:46:12;;;;;;;7.05;3.90;;;;;;;;;;1028599;28;113929;-65
2021/07/14 09:47:07;;;;;;;6.32;3.97;;;;;;;;;;1030872;28;113728;-65
2021/07/14 09:47:38;;;;;;;6.95;3.97;;;;;;;;;;1025417;28;114585;-64
2021/07/14 09:48:11;;;;;;;8.73;3.97;;;;;;;;;;1029600;28;113885;-66
2021/07/14 09:48:48;;;;;;;8.30;4.63;;;;;;;;;;1028304;28;114190;-63
2021/07/14 09:49:19;;;;;;;10.52;4.03;;;;;;;;;;1029182;28;114718;-65
2021/07/14 09:49:50;;;;;;;6.18;4.13;;;;;;;;;;1032497;28;115446;-64
2021/07/14 09:50:35;;;;;;;8.50;4.18;;;;;;;;;;1032282;28;113975;-65
2021/07/14 09:51:12;;;;;;;6.93;3.95;;;;;;;;;;1027072;28;113955;-66
2021/07/14 09:51:43;;;;;;;9.10;4.18;;;;;;;;;;1029395;28;115840;-67
2021/07/14 09:52:20;;;;;;;11.23;4.32;;;;;;;;;;1025428;28;114025;-66
2021/07/14 09:53:02;;;;;;;4.25;3.42;;;;;;;;;;1018720;28;116438;-65
2021/07/14 09:53:35;;;;;;;8.68;4.03;;;;;;;;;;1019831;28;114222;-67
2021/07/14 09:54:06;;;;;;;10.90;4.72;;;;;;;;;;1020980;28;114158;-65
2021/07/14 09:54:39;;;;;;;8.90;4.00;;;;;;;;;;1026137;28;114565;-66
2021/07/14 09:55:10;;;;;;;6.82;4.15;;;;;;;;;;1014525;28;115426;-66
2021/07/14 09:55:41;;;;;;;10.35;4.20;;;;;;;;;;1016994;28;114266;-68
2021/07/14 09:56:14;;;;;;;9.57;4.40;;;;;;;;;;1022073;28;117206;-68
2021/07/14 09:56:46;;;;;;;9.60;4.50;;;;;;;;;;1019381;28;114333;-69
2021/07/14 09:57:19;;;;;;;7.45;4.25;;;;;;;;;;1015577;28;114098;-67
2021/07/14 09:57:50;;;;;;;8.93;4.05;;;;;;;;;;1017575;28;115897;-69
2021/07/14 09:58:29;;;;;;;8.30;4.05;;;;;;;;;;1017566;28;116112;-67
2021/07/14 09:59:09;;;;;;;7.95;4.18;;;;;;;;;;1022256;28;114115;-64
2021/07/14 09:59:41;;;;;;;6.55;3.90;;;;;;;;;;1023804;28;115148;-65
2021/07/14 10:00:19;;;;;;;7.90;4.03;;;;;;;;;;1028938;28;113976;-64
2021/07/14 10:00:52;;;;;;;10.07;4.30;;;;;;;;;;1029773;28;114107;-69
2021/07/14 10:01:38;;;;;;;5.63;4.03;;;;;;;;;;1027216;28;114164;-63
2021/07/14 10:02:14;;;;;;;6.15;4.10;;;;;;;;;;1027964;28;116373;-63
2021/07/14 10:02:56;;;;;;;10.15;4.20;;;;;;;;;;1027632;28;114344;-65
2021/07/14 10:03:33;;;;;;;9.20;4.00;;;;;;;;;;1021024;28;114847;-66
2021/07/14 10:04:04;;;;;;;7.53;4.00;;;;;;;;;;1012913;28;114144;-64
2021/07/14 10:04:40;;;;;;;12.77;4.03;;;;;;;;;;1016611;28;114311;-64
2021/07/14 10:05:11;;;;;;;11.20;4.85;;;;;;;;;;1020183;28;114224;-66
2021/07/14 10:05:43;;;;;;;5.97;3.97;;;;;;;;;;1018539;28;114983;-63
2021/07/14 10:06:15;;;;;;;8.80;3.67;;;;;;;;;;1020292;28;114208;-63
2021/07/14 10:06:46;;;;;;;6.00;3.63;;;;;;;;;;1023516;28;116452;-64
2021/07/14 10:07:26;;;;;;;14.68;4.53;;;;;;;;;;1019112;28;114885;-63
2021/07/14 10:08:20;;;;;;;7.67;4.30;;;;;;;;;;1018232;28;115022;-64
2021/07/14 10:08:52;;;;;;;6.90;3.72;;;;;;;;;;1023820;28;113938;-64
2021/07/14 10:09:24;;;;;;;12.48;4.22;;;;;;;;;;1033103;28;113920;-64
2021/07/14 10:09:57;;;;;;;5.88;3.83;;;;;;;;;;1019748;28;114435;-65
2021/07/14 10:10:28;;;;;;;7.97;4.40;;;;;;;;;;1018449;28;113972;-62
2021/07/14 10:11:11;;;;;;;11.38;4.15;;;;;;;;;;1020041;28;113990;-63
2021/07/14 10:11:43;;;;;;;8.27;4.05;;;;;;;;;;1022364;28;114909;-64
2021/07/14 10:12:37;;;;;;;6.32;3.80;;;;;;;;;;1016724;28;114091;-59
2021/07/14 10:13:09;;;;;;;8.05;4.20;;;;;;;;;;1015920;28;114338;-59
2021/07/14 10:14:00;;;;;;;6.25;4.38;;;;;;;;;;1018859;28;114233;-59
2021/07/14 10:14:31;;;;;;;10.27;4.07;;;;;;;;;;1021420;28;114626;-59
2021/07/14 10:15:08;;;;;;;7.00;3.90;;;;;;;;;;1019362;28;114372;-59
2021/07/14 10:15:40;;;;;;;7.63;4.13;;;;;;;;;;1013386;28;114675;-59
2021/07/14 10:16:11;;;;;;;9.32;4.30;;;;;;;;;;1012143;28;114157;-59
2021/07/14 10:16:42;;;;;;;7.72;4.00;;;;;;;;;;1009177;28;115863;-59
2021/07/14 10:17:33;;;;;;;7.07;4.05;;;;;;;;;;1013753;28;114317;-59
2021/07/14 10:18:10;;;;;;;6.50;3.55;;;;;;;;;;1016591;28;114208;-59
2021/07/14 10:19:03;;;;;;;6.75;3.65;;;;;;;;;;1021351;28;114250;-59
2021/07/14 10:19:34;;;;;;;6.80;3.67;;;;;;;;;;1016206;28;114082;-59
2021/07/14 10:20:21;;;;;;;6.32;3.90;;;;;;;;;;1021703;28;114417;-59
2021/07/14 10:20:53;;;;;;;8.35;3.95;;;;;;;;;;1023846;28;114832;-59
2021/07/14 10:21:24;;;;;;;10.40;3.97;;;;;;;;;;1012640;28;114243;-59
2021/07/14 10:21:57;;;;;;;6.68;4.00;;;;;;;;;;1009456;28;115040;-59
2021/07/14 10:22:28;;;;;;;5.00;3.63;;;;;;;;;;1008194;28;114771;-59
2021/07/14 10:23:30;;;;;;;6.32;3.65;;;;;;;;;;1010492;28;113868;-59
2021/07/14 10:24:04;;;;;;;7.20;3.60;;;;;;;;;;1016097;28;114562;-60
2021/07/14 10:24:35;;;;;;;6.70;3.72;;;;;;;;;;1030688;28;113812;-59
2021/07/14 10:25:08;;;;;;;8.65;3.38;;;;;;;;;;1025600;28;114131;-59
2021/07/14 10:25:43;;;;;;;7.53;3.97;;;;;;;;;;1024927;28;114124;-59
2021/07/14 10:26:16;;;;;;;7.38;4.05;;;;;;;;;;1025349;28;113721;-59
2021/07/14 10:26:53;;;;;;;6.55;3.78;;;;;;;;;;1023342;28;113931;-59
2021/07/14 10:27:24;;;;;;;5.20;3.25;;;;;;;;;;1013266;28;114186;-59
2021/07/14 10:27:58;;;;;;;5.45;3.50;;;;;;;;;;1011153;28;114603;-59
2021/07/14 10:28:30;;;;;;;7.13;3.78;;;;;;;;;;1009387;28;114573;-65
2021/07/14 10:29:02;;;;;;;6.78;3.33;;;;;;;;;;1013633;28;117112;-65
2021/07/14 10:29:34;;;;;;;6.30;3.40;;;;;;;;;;1010616;28;113879;-65
2021/07/14 10:30:05;;;;;;;6.18;3.60;;;;;;;;;;1014632;28;113815;-65
2021/07/14 10:30:40;;;;;;;6.80;3.80;;;;;;;;;;1014848;28;114285;-65
2021/07/14 10:31:12;;;;;;;5.75;3.42;;;;;;;;;;1011689;28;114658;-65
2021/07/14 10:31:47;;;;;;;6.60;3.80;;;;;;;;;;1009981;28;114039;-65
2021/07/14 10:32:19;;;;;;;7.35;4.00;;;;;;;;;;1011586;28;113994;-66
2021/07/14 10:32:52;;;;;;;7.82;3.60;;;;;;;;;;1009605;28;113978;-66
2021/07/14 10:33:24;;;;;;;8.60;3.85;;;;;;;;;;1013024;28;115283;-66
2021/07/14 10:33:56;;;;;;;6.53;3.88;;;;;;;;;;1016240;28;113908;-66
2021/07/14 10:34:27;;;;;;;6.45;3.70;;;;;;;;;;1014936;28;116438;-66
2021/07/14 10:34:59;;;;;;;6.80;3.28;;;;;;;;;;1012851;28;113985;-66
2021/07/14 10:35:37;;;;;;;5.93;3.97;;;;;;;;;;1021429;28;115404;-65
2021/07/14 10:36:14;;;;;;;6.18;3.58;;;;;;;;;;1015790;28;113990;-66
2021/07/14 10:36:51;;;;;;;5.90;3.08;;;;;;;;;;1013690;28;117923;-66
2021/07/14 10:37:22;;;;;;;5.75;3.40;;;;;;;;;;1016420;28;113813;-66
2021/07/14 10:37:59;;;;;;;7.78;3.80;;;;;;;;;;1019803;28;115847;-66
2021/07/14 10:38:32;;;;;;;6.90;3.60;;;;;;;;;;1010230;28;114112;-66
2021/07/14 10:39:14;;;;;;;6.28;3.47;;;;;;;;;;1011095;28;114559;-66
2021/07/14 10:39:46;;;;;;;6.65;3.65;;;;;;;;;;1012995;28;116121;-66
2021/07/14 10:40:19;;;;;;;6.57;3.42;;;;;;;;;;1016230;28;115211;-66
2021/07/14 10:40:52;;;;;;;5.07;3.30;;;;;;;;;;1010365;28;114458;-66
2021/07/14 10:41:26;;;;;;;9.63;3.60;;;;;;;;;;1009794;28;116461;-66
2021/07/14 10:41:58;;;;;;;6.60;3.97;;;;;;;;;;1009055;28;114072;-65
2021/07/14 10:42:29;;;;;;;;;;;;;;;;;;1013857;28;116050;-67
2021/07/14 10:43:00;;;;;;;11.07;4.10;;;;;;;;;;1011529;28;115200;-61
2021/07/14 10:43:32;;;;;;;11.65;3.60;;;;;;;;;;1011419;28;115883;-63
2021/07/14 10:44:07;;;;;;;7.78;3.72;;;;;;;;;;1012462;28;113969;-63
2021/07/14 10:44:38;;;;;;;10.43;3.88;;;;;;;;;;1017894;28;114111;-71
2021/07/14 10:45:12;;;;;;;315.73;30.33;;;;;;;;;;1012832;28;113920;-71
2021/07/14 10:45:47;;;;;;;20.00;4.57;;;;;;;;;;1013368;28;113831;-64
2021/07/14 10:46:21;;;;;;;10.98;3.75;;;;;;;;;;1013573;28;113948;-58
2021/07/14 10:46:52;;;;;;;14.60;4.25;;;;;;;;;;1008947;28;117680;-58
2021/07/14 10:47:24;;;;;;;10.63;4.53;;;;;;;;;;1008822;28;114538;-58
2021/07/14 10:47:56;;;;;;;11.85;4.32;;;;;;;;;;1013206;28;115150;-57
2021/07/14 10:48:27;;;;;;;10.48;3.63;;;;;;;;;;1004880;28;113807;-59
2021/07/14 10:49:07;;;;;;;8.05;4.20;;;;;;;;;;1009689;28;117152;-58
2021/07/14 10:49:41;;;;;;;9.90;4.30;;;;;;;;;;1010072;28;114973;-60
2021/07/14 10:50:15;;;;;;;7.57;3.72;;;;;;;;;;1013829;28;115790;-58
2021/07/14 10:50:48;;;;;;;6.85;3.22;;;;;;;;;;1011736;28;113914;-58
2021/07/14 10:51:22;;;;;;;5.50;3.13;;;;;;;;;;1017300;28;116156;-58
2021/07/14 10:51:54;;;;;;;8.30;3.58;;;;;;;;;;1014416;28;114862;-60
2021/07/14 10:52:26;;;;;;;10.75;3.72;;;;;;;;;;1019865;28;115229;-59
2021/07/14 10:52:59;;;;;;;8.40;4.15;;;;;;;;;;1025725;28;113809;-60
2021/07/14 10:53:31;;;;;;;6.63;3.63;;;;;;;;;;1021128;28;116188;-60
2021/07/14 10:54:09;;;;;;;8.63;3.95;;;;;;;;;;1009556;28;114168;-59
2021/07/14 10:54:41;;;;;;;9.52;3.63;;;;;;;;;;1021666;28;115376;-61
2021/07/14 10:55:23;;;;;;;5.63;3.03;;;;;;;;;;1012258;28;114501;-60
2021/07/14 10:55:55;;;;;;;6.60;2.92;;;;;;;;;;1011013;28;113788;-57
2021/07/14 10:56:29;;;;;;;6.88;2.90;;;;;;;;;;1009030;28;114222;-57
2021/07/14 10:57:04;;;;;;;7.55;3.50;;;;;;;;;;1014959;28;114262;-59
2021/07/14 10:57:37;;;;;;;11.07;3.72;;;;;;;;;;1017640;28;113855;-58
2021/07/14 10:58:11;;;;;;;5.80;3.05;;;;;;;;;;1012369;28;116648;-58
2021/07/14 10:58:44;;;;;;;7.88;3.58;;;;;;;;;;1017035;28;113881;-60
2021/07/14 10:59:21;;;;;;;6.80;3.22;;;;;;;;;;1014104;28;115750;-58
2021/07/14 10:59:52;;;;;;;7.15;3.00;;;;;;;;;;1013618;28;113999;-61
2021/07/14 11:00:24;;;;;;;7.35;2.78;;;;;;;;;;1014621;28;114171;-58
2021/07/14 11:00:57;;;;;;;7.05;3.20;;;;;;;;;;1014279;28;114266;-59
2021/07/14 11:01:52;;;;;;;8.25;3.50;;;;;;;;;;1010259;28;115217;-58
2021/07/14 11:02:44;;;;;;;5.72;3.00;;;;;;;;;;1015242;28;113826;-57
2021/07/14 11:03:37;;;;;;;6.45;2.88;;;;;;;;;;1016523;28;113772;-57
2021/07/14 11:04:25;;;;;;;7.75;3.50;;;;;;;;;;1057441;27;113688;-56
2021/07/14 11:04:57;;;;;;;10.30;3.72;;;;;;;;;;1049724;27;113807;-57
2021/07/14 19:36:28;;;;;;;19.20;7.30;;;;;;;;;;1053436;27;99911;-18
2021/07/14 19:36:59;;;;;;;14.35;6.10;;;;;;;;;;1046278;27;101178;-18
2021/07/14 19:37:30;;;;;;;12.10;5.40;;;;;;;;;;1048550;27;99929;-17
2021/07/14 19:38:01;;;;;;;16.50;6.88;;;;;;;;;;1045654;27;101674;-18
2021/07/14 19:38:32;;;;;;;12.05;6.13;;;;;;;;;;1048048;27;100001;-19
2021/07/14 19:39:05;;;;;;;20.15;6.18;;;;;;;;;;1011162;27;100358;-17
2021/07/14 19:39:36;;;;;;;11.40;5.93;;;;;;;;;;1042998;27;99915;-17
2021/07/14 19:41:06;;;;;;;7.40;5.00;;;;;;;;;;2515741;23;99931;-16
2021/07/14 19:42:08;;;;;;;12.05;5.60;;;;;;;;;;2497659;23;100655;-18
2021/07/14 19:43:09;;;;;;;;;;;;;;;;;;2507228;23;100555;-17
2021/07/14 19:44:10;;;;;;;12.55;5.55;;;;;;;;;;2486193;23;184287;-17
2021/07/14 19:45:13;;;;;;;9.20;5.50;;;;;;;;;;2472530;23;100250;-17
2021/07/14 19:46:14;;;;;;;16.27;5.90;;;;;;;;;;2462544;23;99742;-17
2021/07/14 19:47:17;;;;;;;;;;;;;;;;;;2462882;23;99907;-18
2021/07/14 19:48:18;;;;;;;10.32;4.93;;;;;;;;;;2462262;23;99854;-18
2021/07/14 19:49:19;;;;;;;9.82;4.95;;;;;;;;;;2461497;23;99975;-15
2021/07/14 19:50:20;;;;;;;;;;;;;;;;;;2462723;23;99819;-16
2021/07/14 19:51:21;;;;;;;8.40;4.80;;;;;;;;;;2462049;23;99921;-17
2021/07/14 19:52:22;;;;;;;;;;;;;;;;;;2462394;23;100125;-19
2021/07/14 19:53:23;;;;;;;9.38;4.63;;;;;;;;;;2461536;23;100828;-18
2021/07/14 19:54:25;;;;;;;6.97;4.50;;;;;;;;;;2462302;23;99763;-19
2021/07/14 19:55:25;;;;;;;11.57;5.90;;;;;;;;;;2462062;23;99775;-19
2021/07/14 19:56:26;;;;;;;;;;;;;;;;;;2452476;23;99718;-19
2021/07/14 19:58:08;;;;;;;12.95;7.82;;;;;;;;;;2074545;28;99975;-19
2021/07/14 20:00:10;;;;;;;16.80;8.55;;;;;;;;;;2062218;27;99828;-19
2021/07/14 20:01:16;;;;;;;18.55;8.43;;;;;;;;;;2056130;28;100095;-19
2021/07/14 20:02:17;;;;;;;12.63;7.35;;;;;;;;;;2064044;28;99908;-20
2021/07/14 20:03:17;;;;;;;;;;;;;;;;;;2063349;28;99907;-20
2021/07/14 20:04:18;;;;;;;13.37;6.10;;;;;;;;;;2064823;28;99965;-19
2021/07/14 20:05:19;;;;;;;12.98;6.22;;;;;;;;;;2061405;28;99741;-19
2021/07/14 20:06:20;;;;;;;;;;;;;;;;;;2047821;28;100405;-19
2021/07/14 20:07:21;;;;;;;15.82;7.10;;;;;;;;;;2050814;28;99985;-18
2021/07/14 20:08:22;;;;;;;9.88;5.80;;;;;;;;;;2072423;28;99898;-19
2021/07/14 20:09:22;;;;;;;;;;;;;;;;;;2072576;28;100000;-18
2021/07/14 20:10:24;;;;;;;14.63;6.63;;;;;;;;;;2068176;28;99839;-18
2021/07/14 20:11:25;;;;;;;15.65;8.40;;;;;;;;;;2065845;28;101024;-19
2021/07/14 20:12:25;;;;;;;;;;;;;;;;;;2056677;28;100261;-20
2021/07/14 20:13:29;;;;;;;24.33;8.23;;;;;;;;;;2055998;28;99949;-18
2021/07/14 20:14:31;;;;;;;10.90;7.28;;;;;;;;;;2069284;28;99975;-18
2021/07/14 20:15:31;;;;;;;17.05;7.35;;;;;;;;;;2064232;28;99874;-20
2021/07/14 20:16:32;;;;;;;;;;;;;;;;;;2060786;28;101380;-18
2021/07/14 20:18:09;;;;;;;13.65;6.60;;;;;;;;;;2073356;28;99949;-22
2021/07/14 20:19:10;;;;;;;;;;;;;;;;;;2071010;28;99823;-24
2021/07/14 20:20:13;;;;;;;18.08;6.75;;;;;;;;;;2078741;28;100035;-25
2021/07/14 20:21:14;;;;;;;11.55;5.90;;;;;;;;;;2078029;27;100117;-22
2021/07/14 20:22:15;;;;;;;;;;;;;;;;;;2070848;28;100018;-23
2021/07/14 20:23:16;;;;;;;14.40;6.38;;;;;;;;;;2061471;28;99871;-22
2021/07/14 20:24:17;;;;;;;;;;;;;;;;;;2071932;28;99970;-24
2021/07/14 20:25:18;;;;;;;15.50;5.93;;;;;;;;;;2068440;28;99968;-24
2021/07/14 20:26:19;;;;;;;10.82;5.97;;;;;;;;;;2070112;28;99945;-24
2021/07/14 20:27:20;;;;;;;14.10;6.68;;;;;;;;;;2070596;28;99754;-23
2021/07/14 20:28:23;;;;;;;15.65;6.45;;;;;;;;;;2071771;28;99932;-22
2021/07/14 20:29:24;;;;;;;12.93;6.10;;;;;;;;;;2066784;28;99912;-22
2021/07/14 20:30:25;;;;;;;;;;;;;;;;;;2056739;28;100003;-24
2021/07/14 20:31:26;;;;;;;10.52;5.32;;;;;;;;;;2057600;28;100096;-24
2021/07/14 20:32:27;;;;;;;10.75;5.70;;;;;;;;;;2070256;28;100007;-30
2021/07/14 20:33:28;;;;;;;;;;;;;;;;;;2064819;28;99974;-22
2021/07/14 20:34:29;;;;;;;14.20;6.05;;;;;;;;;;2072425;28;99901;-23
2021/07/14 20:35:31;;;;;;;10.52;5.72;;;;;;;;;;2068121;28;100596;-22
2021/07/14 20:36:32;;;;;;;10.15;5.55;;;;;;;;;;2060171;28;100665;-24
2021/07/14 20:37:33;;;;;;;8.85;5.20;;;;;;;;;;2055844;28;100102;-26
2021/07/14 20:38:34;;;;;;;;;;;;;;;;;;2056324;28;99954;-25
2021/07/14 20:39:36;;;;;;;10.60;4.82;;;;;;;;;;2060190;28;100386;-25
2021/07/14 20:40:37;;;;;;;10.10;5.57;;;;;;;;;;2080366;28;100094;-25
2021/07/14 20:41:38;;;;;;;9.70;5.35;;;;;;;;;;2075908;27;99877;-25
2021/07/14 20:42:39;;;;;;;;;;;;;;;;;;2056944;28;99968;-24
2021/07/14 20:43:40;;;;;;;;;;;;;;;;;;2056599;28;99820;-23
2021/07/14 20:44:41;;;;;;;14.73;5.30;;;;;;;;;;2056204;28;100001;-26
2021/07/14 20:45:42;;;;;;;14.05;5.47;;;;;;;;;;2056424;28;100025;-25
2021/07/14 20:46:43;;;;;;;16.13;5.72;;;;;;;;;;2064396;28;99921;-26
2021/07/14 20:47:45;;;;;;;11.30;5.28;;;;;;;;;;2062874;28;100203;-23
2021/07/14 20:48:46;;;;;;;16.00;5.53;;;;;;;;;;2064153;28;99985;-23
2021/07/14 20:49:47;;;;;;;;;;;;;;;;;;2064960;28;99846;-23
2021/07/14 20:50:49;;;;;;;12.15;5.43;;;;;;;;;;2064470;28;99816;-25
2021/07/14 20:51:49;;;;;;;;;;;;;;;;;;2064896;28;99765;-25
2021/07/14 20:52:50;;;;;;;10.13;4.72;;;;;;;;;;2064629;28;99825;-25
2021/07/14 20:53:51;;;;;;;8.05;4.55;;;;;;;;;;2079968;28;100069;-26
2021/07/14 20:54:52;;;;;;;;;;;;;;;;;;2080272;28;99936;-25
2021/07/14 20:55:53;;;;;;;16.52;5.57;;;;;;;;;;2067107;28;99885;-25
2021/07/14 20:56:54;;;;;;;;;;;;;;;;;;2072701;28;100282;-23
2021/07/14 20:57:55;;;;;;;10.70;4.88;;;;;;;;;;2071829;28;100376;-26
2021/07/14 20:58:57;;;;;;;12.23;5.10;;;;;;;;;;2072597;28;99917;-25
2021/07/14 20:59:58;;;;;;;14.07;5.32;;;;;;;;;;2072350;28;99732;-25
2021/07/14 21:00:59;;;;;;;;;;;;;;;;;;2072392;28;99979;-23
2021/07/14 21:02:00;;;;;;;11.93;4.72;;;;;;;;;;2072100;28;99977;-25
2021/07/14 21:03:00;;;;;;;;;;;;;;;;;;2072306;28;99748;-25
2021/07/14 21:04:02;;;;;;;13.15;4.80;;;;;;;;;;2072243;28;100101;-25
2021/07/14 21:05:05;;;;;;;9.45;4.88;;;;;;;;;;2071815;28;100124;-24
2021/07/14 21:06:06;;;;;;;10.48;4.90;;;;;;;;;;2055650;28;99927;-24
2021/07/14 21:07:07;;;;;;;9.25;4.30;;;;;;;;;;2063586;28;99919;-24
2021/07/14 21:08:10;;;;;;;;;;;;;;;;;;2073071;28;99814;-25
2021/07/14 21:09:12;;;;;;;14.02;4.88;;;;;;;;;;2071955;28;99949;-22
2021/07/14 21:10:14;;;;;;;12.30;4.72;;;;;;;;;;2071566;28;100027;-23
2021/07/14 21:11:15;;;;;;;11.45;5.00;;;;;;;;;;2072483;28;99798;-24
2021/07/14 21:12:17;;;;;;;11.45;4.93;;;;;;;;;;2071349;28;100428;-22
2021/07/14 21:13:18;;;;;;;10.07;4.72;;;;;;;;;;2063768;28;99873;-25
2021/07/14 21:14:19;;;;;;;;;;;;;;;;;;2072031;28;99838;-25
2021/07/14 21:15:21;;;;;;;14.15;4.22;;;;;;;;;;2071788;28;99773;-26
2021/07/14 21:16:25;;;;;;;10.85;4.20;;;;;;;;;;2067529;27;99965;-23
2021/07/14 21:17:26;;;;;;;16.77;4.68;;;;;;;;;;2064049;28;99833;-22
2021/07/14 21:18:27;;;;;;;15.63;5.32;;;;;;;;;;2062267;28;99884;-24
2021/07/14 21:19:28;;;;;;;9.55;4.55;;;;;;;;;;2071117;28;99917;-23
2021/07/14 21:20:29;;;;;;;;;;;;;;;;;;2080511;28;100188;-25
2021/07/14 21:21:30;;;;;;;12.50;5.00;;;;;;;;;;2070041;28;100072;-24
2021/07/14 21:22:32;;;;;;;13.77;5.03;;;;;;;;;;2071745;28;100077;-23
2021/07/14 21:23:32;;;;;;;12.35;4.50;;;;;;;;;;2071828;28;99984;-25
2021/07/14 21:24:34;;;;;;;8.75;4.28;;;;;;;;;;2071113;28;100028;-24
2021/07/14 21:25:35;;;;;;;9.07;4.93;;;;;;;;;;2071543;28;100516;-23
2021/07/14 21:26:36;;;;;;;;;;;;;;;;;;2072010;28;100035;-23
2021/07/14 21:27:37;;;;;;;8.07;4.00;;;;;;;;;;2068746;28;100221;-26
2021/07/14 21:28:38;;;;;;;10.43;4.80;;;;;;;;;;2069724;28;100009;-23
2021/07/14 21:29:42;;;;;;;13.63;4.82;;;;;;;;;;2065055;28;100023;-23
2021/07/14 21:30:43;;;;;;;11.95;4.55;;;;;;;;;;2065804;28;100255;-25
2021/07/14 21:31:44;;;;;;;;;;;;;;;;;;2061048;28;100014;-25
2021/07/14 21:32:45;;;;;;;8.45;4.03;;;;;;;;;;2066062;28;99866;-25
2021/07/14 21:33:47;;;;;;;9.10;4.45;;;;;;;;;;2066110;28;100236;-25
2021/07/14 21:34:49;;;;;;;12.73;4.55;;;;;;;;;;2066450;28;99990;-23
2021/07/14 21:35:50;;;;;;;10.43;4.78;;;;;;;;;;2057245;28;100105;-25
2021/07/14 21:36:51;;;;;;;8.50;4.05;;;;;;;;;;2057871;28;100638;-23
2021/07/14 21:37:52;;;;;;;;;;;;;;;;;;2058006;28;100134;-23
2021/07/14 21:38:53;;;;;;;9.00;4.25;;;;;;;;;;2049597;28;100123;-23
2021/07/14 21:39:55;;;;;;;9.52;4.20;;;;;;;;;;2049663;28;102006;-23
2021/07/14 21:40:56;;;;;;;7.68;3.95;;;;;;;;;;2056891;28;100153;-23
2021/07/14 21:41:58;;;;;;;8.10;4.15;;;;;;;;;;2065833;28;100428;-25
2021/07/14 21:43:00;;;;;;;14.20;4.30;;;;;;;;;;2073435;28;99955;-24
2021/07/14 21:44:01;;;;;;;9.18;4.10;;;;;;;;;;2073410;28;100216;-25
2021/07/14 21:45:03;;;;;;;9.60;4.57;;;;;;;;;;2058327;28;100086;-26
2021/07/14 21:46:04;;;;;;;7.82;4.03;;;;;;;;;;2057222;28;100037;-26
2021/07/14 21:47:04;;;;;;;;;;;;;;;;;;2055384;28;100010;-24
2021/07/14 21:48:07;;;;;;;7.88;4.50;;;;;;;;;;2057096;28;100017;-24
2021/07/14 21:49:08;;;;;;;7.22;4.10;;;;;;;;;;2057273;28;100385;-26
2021/07/14 21:50:13;;;;;;;9.65;4.45;;;;;;;;;;2053396;28;99857;-26
2021/07/14 21:51:14;;;;;;;7.88;4.22;;;;;;;;;;2049921;28;100145;-23
2021/07/14 21:52:15;;;;;;;9.75;4.60;;;;;;;;;;2049856;28;99939;-24
2021/07/14 21:53:16;;;;;;;5.18;3.55;;;;;;;;;;2050254;28;100208;-24
2021/07/14 21:54:18;;;;;;;6.47;3.55;;;;;;;;;;2051468;28;100384;-24
2021/07/14 21:55:19;;;;;;;8.68;3.80;;;;;;;;;;2054337;28;100038;-24
2021/07/14 21:56:20;;;;;;;10.07;3.83;;;;;;;;;;2051750;28;99868;-26
2021/07/14 21:57:21;;;;;;;;;;;;;;;;;;2047039;28;100038;-22
2021/07/14 21:58:22;;;;;;;5.35;3.90;;;;;;;;;;2047644;28;100142;-24
2021/07/14 21:59:23;;;;;;;7.88;3.70;;;;;;;;;;2057454;28;100419;-24
2021/07/14 22:00:25;;;;;;;;;;;;;;;;;;2051674;28;101204;-26
2021/07/14 22:01:26;;;;;;;9.23;4.03;;;;;;;;;;2051197;28;100143;-23
2021/07/14 22:02:28;;;;;;;8.68;3.97;;;;;;;;;;2053947;28;100019;-24
2021/07/14 22:03:30;;;;;;;7.25;3.95;;;;;;;;;;2048830;28;99910;-23
2021/07/14 22:04:31;;;;;;;10.77;4.18;;;;;;;;;;2048410;28;100251;-24
2021/07/14 22:05:33;;;;;;;;;;;;;;;;;;2057659;28;100321;-25
2021/07/14 22:06:33;;;;;;;;;;;;;;;;;;2051185;28;100135;-24
2021/07/14 22:07:34;;;;;;;11.73;4.18;;;;;;;;;;2058056;28;100042;-24
2021/07/14 22:08:35;;;;;;;6.43;4.20;;;;;;;;;;2056812;28;100021;-25
2021/07/14 22:09:36;;;;;;;;;;;;;;;;;;2049887;28;99935;-24
2021/07/14 22:10:52;;;;;;;9.88;3.97;;;;;;;;;;2051672;28;99854;-23
2021/07/14 22:11:52;;;;;;;10.13;4.35;;;;;;;;;;2050750;28;100031;-24
2021/07/14 22:12:53;;;;;;;;;;;;;;;;;;2057518;28;99909;-23
2021/07/14 22:13:54;;;;;;;6.10;3.70;;;;;;;;;;2055779;28;100178;-23
2021/07/14 22:14:55;;;;;;;;;;;;;;;;;;2053422;28;99978;-23
2021/07/14 22:15:59;;;;;;;8.50;4.22;;;;;;;;;;2057700;28;99925;-25
2021/07/14 22:17:01;;;;;;;6.18;3.67;;;;;;;;;;2055442;28;99995;-23
2021/07/14 22:18:04;;;;;;;6.30;4.18;;;;;;;;;;2050911;28;100407;-24
2021/07/14 22:19:06;;;;;;;9.38;4.47;;;;;;;;;;2049229;28;99983;-28
2021/07/14 22:20:11;;;;;;;8.63;4.30;;;;;;;;;;2049555;28;99879;-24
2021/07/14 22:21:21;;;;;;;5.63;3.60;;;;;;;;;;2049030;28;100454;-24
2021/07/14 22:22:22;;;;;;;6.15;3.55;;;;;;;;;;2049599;28;100058;-22
2021/07/14 22:23:34;;;;;;;6.20;3.58;;;;;;;;;;2048978;28;99964;-24
2021/07/14 22:24:35;;;;;;;8.85;3.53;;;;;;;;;;2056380;28;100125;-24
2021/07/14 22:25:36;;;;;;;;;;;;;;;;;;2051285;28;100057;-25
2021/07/14 22:26:38;;;;;;;7.07;3.55;;;;;;;;;;2054107;28;100055;-25
2021/07/14 22:27:39;;;;;;;6.18;3.65;;;;;;;;;;2057371;28;99960;-23
2021/07/14 22:28:40;;;;;;;9.52;4.10;;;;;;;;;;2049976;28;99860;-25
2021/07/14 22:29:41;;;;;;;8.57;3.88;;;;;;;;;;2049316;28;100040;-24
2021/07/14 22:30:45;;;;;;;7.75;3.88;;;;;;;;;;2048463;28;100483;-22
2021/07/14 22:31:47;;;;;;;9.98;4.10;;;;;;;;;;2048381;28;100140;-24
2021/07/14 22:32:49;;;;;;;11.13;3.80;;;;;;;;;;2049358;28;99910;-22
2021/07/14 22:33:53;;;;;;;7.93;4.22;;;;;;;;;;2048718;28;100111;-22
2021/07/14 22:34:55;;;;;;;9.15;3.50;;;;;;;;;;2046943;28;99991;-22
2021/07/14 22:35:59;;;;;;;9.30;3.90;;;;;;;;;;2041583;28;100298;-22